Time;durP1;ratioP1;P1;durP2;ratioP2;P2;SDS_P1;SDS_P2;PMS_P1;PMS_P2;Temp;Humidity;BMP_temperature;BMP_pressure;BME280_temperature;BME280_humidity;BME280_pressure;Samples;Min_cycle;Max_cycle;Signal;HPM_P1;HPM_P2
2022/05/11 00:01:22;;;;;;;4.55;2.03;;;;;;;15.66;100.00;100343.97;5048934;28;20132;-59
2022/05/11 00:03:48;;;;;;;6.85;2.53;;;;;;;15.81;100.00;100366.72;5048689;28;20032;-59
2022/05/11 00:06:13;;;;;;;7.10;2.38;;;;;;;15.75;100.00;100353.91;5048713;28;20035;-59
2022/05/11 00:08:39;;;;;;;5.63;1.70;;;;;;;15.73;100.00;100348.72;5048648;28;20081;-59
2022/05/11 00:11:05;;;;;;;5.35;2.25;;;;;;;15.77;100.00;100359.94;5049886;28;20036;-59
2022/05/11 00:13:31;;;;;;;4.93;2.33;;;;;;;15.72;100.00;100346.16;5048326;28;20055;-59
2022/05/11 00:15:57;;;;;;;4.15;1.98;;;;;;;15.72;100.00;100356.75;5048979;28;20036;-59
2022/05/11 00:18:22;;;;;;;7.15;2.08;;;;;;;15.57;100.00;100331.41;5046090;28;20036;-59
2022/05/11 00:20:48;;;;;;;4.55;2.35;;;;;;;15.44;100.00;100309.38;5040338;28;20058;-59
2022/05/11 00:23:13;;;;;;;5.30;2.50;;;;;;;15.65;100.00;100350.22;5048636;28;20020;-59
2022/05/11 00:25:39;;;;;;;8.48;2.15;;;;;;;15.52;100.00;100328.22;5048236;28;20028;-59
2022/05/11 00:28:04;;;;;;;5.70;2.10;;;;;;;15.48;100.00;100317.00;5048733;28;20147;-59
2022/05/11 00:30:30;;;;;;;5.25;2.47;;;;;;;15.63;100.00;100342.41;5048461;28;20135;-59
2022/05/11 00:32:58;;;;;;;3.83;1.77;;;;;;;15.65;100.00;100344.91;5046989;28;20024;-59
2022/05/11 00:35:28;;;;;;;3.80;2.30;;;;;;;15.67;100.00;100340.38;5030623;28;20028;-59
2022/05/11 00:37:53;;;;;;;3.95;2.00;;;;;;;15.65;100.00;100329.03;5048231;28;20230;-59
2022/05/11 00:40:20;;;;;;;4.25;1.90;;;;;;;15.66;100.00;100328.94;5048259;28;20883;-59
2022/05/11 00:42:46;;;;;;;6.25;2.33;;;;;;;15.43;100.00;100289.97;5049128;28;20028;-59
2022/05/11 00:45:11;;;;;;;5.60;2.10;;;;;;;15.26;100.00;100274.47;5048355;28;20063;-59
2022/05/11 00:47:41;;;;;;;7.00;2.58;;;;;;;15.54;100.00;100323.69;5049377;28;20812;-60
2022/05/11 00:50:16;;;;;;;6.25;2.15;;;;;;;15.45;100.00;100313.69;5049672;28;20031;-59
2022/05/11 00:52:52;;;;;;;5.70;1.88;;;;;;;15.39;100.00;100311.47;5049337;28;20032;-59
2022/05/11 00:55:22;;;;;;;5.03;2.03;;;;;;;15.29;100.00;100306.84;5048558;28;20036;-59
2022/05/11 00:57:52;;;;;;;10.90;2.50;;;;;;;15.14;100.00;100297.34;5065598;28;20237;-59
2022/05/11 01:00:19;;;;;;;4.20;2.22;;;;;;;15.17;100.00;100298.94;5049410;28;20020;-59
2022/05/11 01:02:48;;;;;;;6.40;2.47;;;;;;;15.16;100.00;100300.75;5048504;28;20275;-59
2022/05/11 01:05:14;;;;;;;3.75;2.05;;;;;;;15.16;100.00;100300.75;5063720;28;20039;-59
2022/05/11 01:07:39;;;;;;;4.97;2.47;;;;;;;15.15;100.00;100296.38;5047731;28;20029;-59
2022/05/11 01:10:07;;;;;;;5.40;1.92;;;;;;;15.16;100.00;100306.03;5045294;28;20032;-59
2022/05/11 01:12:37;;;;;;;9.70;2.25;;;;;;;15.19;100.00;100304.97;5048960;28;20036;-59
2022/05/11 01:15:04;;;;;;;7.70;2.35;;;;;;;15.16;100.00;100295.44;5030913;28;20040;-59
2022/05/11 01:17:31;;;;;;;4.57;2.17;;;;;;;15.15;100.00;100299.03;5029724;28;20035;-59
2022/05/11 01:19:57;;;;;;;4.10;2.05;;;;;;;15.07;100.00;100289.97;5047529;28;20485;-59
2022/05/11 01:22:28;;;;;;;6.85;2.55;;;;;;;15.10;100.00;100295.03;5047533;28;20126;-59
2022/05/11 01:24:54;;;;;;;3.63;1.88;;;;;;;15.06;100.00;100285.59;5047974;28;20119;-59
2022/05/11 01:27:32;;;;;;;5.90;2.38;;;;;;;15.03;100.00;100278.75;5047850;28;20028;-59
2022/05/11 01:30:02;;;;;;;3.85;1.95;;;;;;;15.06;100.00;100282.97;5047267;28;20032;-59
2022/05/11 01:32:28;;;;;;;7.55;2.30;;;;;;;15.09;100.00;100277.44;5030917;28;20028;-59
2022/05/11 01:35:01;;;;;;;6.75;2.50;;;;;;;15.11;100.00;100273.72;5047763;28;20138;-59
2022/05/11 01:37:26;;;;;;;3.90;2.20;;;;;;;15.12;100.00;100271.94;5048394;28;20031;-59
2022/05/11 01:39:51;;;;;;;13.20;2.97;;;;;;;15.13;100.00;100263.91;5046922;28;20036;-59
2022/05/11 01:42:19;;;;;;;6.63;2.60;;;;;;;14.65;100.00;100177.41;5046888;28;20835;-59
2022/05/11 01:44:44;;;;;;;4.80;2.10;;;;;;;14.94;100.00;100231.75;5045313;28;20078;-59
2022/05/11 01:47:09;;;;;;;3.65;1.92;;;;;;;15.12;100.00;100259.56;5047237;28;20893;-59
2022/05/11 01:49:35;;;;;;;4.22;2.42;;;;;;;15.09;100.00;100250.97;5047641;28;20055;-59
2022/05/11 01:52:00;;;;;;;3.85;2.10;;;;;;;15.08;100.00;100255.44;5046958;28;20063;-59
2022/05/11 01:54:25;;;;;;;4.38;2.30;;;;;;;14.99;100.00;100240.22;5046791;28;20865;-59
2022/05/11 01:56:51;;;;;;;8.45;2.53;;;;;;;15.02;100.00;100247.94;5046898;28;20130;-59
2022/05/11 01:59:16;;;;;;;3.53;2.22;;;;;;;15.05;100.00;100249.50;5046645;28;20083;-59
2022/05/11 02:01:42;;;;;;;6.00;2.50;;;;;;;14.84;100.00;100220.13;5047591;28;20127;-59
2022/05/11 02:09:37;;;;;;;5.73;2.53;;;;;;;14.80;100.00;100245.13;5047940;28;20955;-59
2022/05/11 02:12:03;;;;;;;5.45;2.28;;;;;;;14.70;100.00;100238.78;5049501;28;20380;-59
2022/05/11 02:14:28;;;;;;;5.28;2.58;;;;;;;14.25;100.00;100174.03;5049476;28;20027;-59
2022/05/11 02:16:53;;;;;;;5.97;2.05;;;;;;;14.51;100.00;100233.03;5051785;28;20028;-59
2022/05/11 02:19:20;;;;;;;4.82;2.35;;;;;;;14.48;100.00;100233.25;5050126;28;20029;-59
2022/05/11 02:21:46;;;;;;;8.32;2.63;;;;;;;14.43;100.00;100232.75;5046565;28;20217;-59
2022/05/11 02:24:11;;;;;;;6.70;2.35;;;;;;;14.33;100.00;100225.44;5046299;28;20108;-59
2022/05/11 02:26:37;;;;;;;5.63;2.22;;;;;;;14.09;100.00;100190.06;5046137;28;20058;-59
2022/05/11 02:29:02;;;;;;;6.72;2.35;;;;;;;14.17;100.00;100218.63;5048396;28;20027;-59
2022/05/11 02:31:28;;;;;;;7.60;1.83;;;;;;;14.20;100.00;100221.91;5046581;28;20035;-59
2022/05/11 02:33:53;;;;;;;4.75;2.33;;;;;;;14.19;100.00;100222.84;5046223;28;20897;-59
2022/05/11 02:36:18;;;;;;;6.45;2.70;;;;;;;14.17;100.00;100222.09;5044871;28;20067;-60
2022/05/11 02:38:44;;;;;;;3.40;1.95;;;;;;;14.05;100.00;100215.03;5046420;28;20062;-59
2022/05/11 02:41:09;;;;;;;6.35;2.40;;;;;;;14.12;100.00;100228.66;5046141;28;20039;-59
2022/05/11 02:43:35;;;;;;;5.68;1.58;;;;;;;13.80;100.00;100188.53;5046676;28;20883;-59
2022/05/11 02:46:00;;;;;;;3.75;2.25;;;;;;;14.00;100.00;100225.03;5039026;28;20872;-59
2022/05/11 02:48:26;;;;;;;4.15;2.47;;;;;;;13.91;100.00;100216.88;5008181;28;20288;-59
2022/05/11 02:50:55;;;;;;;6.55;2.28;;;;;;;13.89;100.00;100221.44;5027602;28;20093;-59
2022/05/11 02:53:21;;;;;;;5.07;2.47;;;;;;;13.87;100.00;100220.69;5025813;28;20051;-59
2022/05/11 02:55:49;;;;;;;4.47;2.10;;;;;;;13.79;100.00;100219.38;5025235;28;20142;-59
2022/05/11 02:58:18;;;;;;;5.70;2.13;;;;;;;13.77;100.00;100225.72;5026577;28;20036;-59
2022/05/11 03:00:45;;;;;;;4.35;1.90;;;;;;;13.71;100.00;100216.44;5026258;28;20962;-59
2022/05/11 03:03:13;;;;;;;6.50;2.13;;;;;;;13.66;100.00;100222.94;5008481;28;20028;-59
2022/05/11 03:05:39;;;;;;;4.18;2.38;;;;;;;13.61;100.00;100225.03;5025763;28;20024;-59
2022/05/11 03:08:05;;;;;;;9.23;2.28;;;;;;;13.49;100.00;100205.56;5026106;28;20126;-59
2022/05/11 03:10:31;;;;;;;4.72;2.30;;;;;;;13.49;100.00;100216.13;5025720;28;20855;-59
2022/05/11 03:12:57;;;;;;;7.53;2.90;;;;;;;13.46;100.00;100213.69;5027065;28;20024;-59
2022/05/11 03:15:23;;;;;;;3.80;2.13;;;;;;;13.42;100.00;100214.00;5025671;28;20962;-59
2022/05/11 03:17:49;;;;;;;6.50;2.40;;;;;;;13.39;100.00;100211.53;5025788;28;20134;-59
2022/05/11 03:20:14;;;;;;;4.10;2.05;;;;;;;13.34;100.00;100201.28;5024770;28;20032;-59
2022/05/11 03:22:39;;;;;;;3.70;2.05;;;;;;;13.35;100.00;100204.78;5024781;28;20035;-59
2022/05/11 03:25:06;;;;;;;3.20;1.95;;;;;;;13.31;100.00;100204.94;5024926;28;20024;-59
2022/05/11 03:27:31;;;;;;;4.80;2.58;;;;;;;13.27;100.00;100195.56;5025395;28;20041;-59
2022/05/11 03:29:57;;;;;;;4.65;2.33;;;;;;;13.25;100.00;100200.06;5025016;28;20082;-59
2022/05/11 03:35:08;;;;;;;5.25;2.75;;;;;;;13.09;100.00;100188.81;5024380;28;20122;-59
2022/05/11 03:37:34;;;;;;;4.10;2.50;;;;;;;13.12;100.00;100196.53;5024909;28;20028;-59
2022/05/11 03:40:00;;;;;;;4.05;2.50;;;;;;;13.05;100.00;100189.06;5024973;28;20024;-59
2022/05/11 03:42:30;;;;;;;5.85;3.35;;;;;;;12.98;100.00;100191.25;5025387;28;20071;-59
2022/05/11 03:44:55;;;;;;;7.85;3.28;;;;;;;12.93;100.00;100190.72;5025495;28;20032;-59
2022/05/11 03:47:21;;;;;;;6.05;3.47;;;;;;;12.82;100.00;100185.25;5023456;28;20040;-59
2022/05/11 03:49:46;;;;;;;4.50;2.72;;;;;;;12.79;100.00;100188.94;5025110;28;20029;-59
2022/05/11 03:52:14;;;;;;;6.78;2.83;;;;;;;12.74;100.00;100190.19;5025069;28;20959;-59
2022/05/11 03:54:39;;;;;;;6.05;2.78;;;;;;;12.65;100.00;100182.81;5024544;28;20561;-59
2022/05/11 03:57:04;;;;;;;5.10;2.53;;;;;;;12.55;100.00;100169.38;5024196;28;20032;-59
2022/05/11 03:59:30;;;;;;;6.90;3.28;;;;;;;12.52;100.00;100173.97;5035837;28;20020;-59
2022/05/11 04:01:55;;;;;;;8.18;3.22;;;;;;;12.54;100.00;100177.38;5043759;28;20121;-59
2022/05/11 04:04:21;;;;;;;6.18;3.25;;;;;;;12.48;100.00;100177.75;5043663;28;20032;-59
2022/05/11 04:06:46;;;;;;;4.45;2.88;;;;;;;12.41;100.00;100164.09;5046532;28;20098;-59
2022/05/11 04:09:11;;;;;;;5.47;2.92;;;;;;;12.29;100.00;100152.53;5048381;28;20785;-59
2022/05/11 04:11:37;;;;;;;5.13;3.03;;;;;;;12.35;100.00;100166.25;5049103;28;20942;-59
2022/05/11 04:14:02;;;;;;;4.22;1.95;;;;;;;12.34;100.00;100175.09;5049067;28;20032;-59
2022/05/11 04:16:27;;;;;;;18.45;3.08;;;;;;;12.25;100.00;100163.34;5048928;28;20093;-59
2022/05/11 04:18:53;;;;;;;3.72;2.35;;;;;;;12.22;100.00;100167.03;5048166;28;20131;-59
2022/05/11 04:21:18;;;;;;;7.07;2.72;;;;;;;12.19;100.00;100161.94;5049625;28;20031;-59
2022/05/11 04:23:44;;;;;;;7.43;3.25;;;;;;;12.16;100.00;100170.03;5048093;28;20906;-60
2022/05/11 04:26:11;;;;;;;7.35;3.10;;;;;;;12.16;100.00;100172.66;5047708;28;20062;-60
2022/05/11 04:28:38;;;;;;;4.63;3.50;;;;;;;12.09;100.00;100160.81;5044356;28;20032;-60
2022/05/11 04:31:08;;;;;;;7.40;3.30;;;;;;;12.16;100.00;100162.13;5036123;28;20046;-59
2022/05/11 04:33:34;;;;;;;5.47;2.90;;;;;;;12.15;100.00;100160.44;5045721;28;20032;-59
2022/05/11 04:36:01;;;;;;;4.60;2.75;;;;;;;12.15;100.00;100160.44;5047507;28;20059;-59
2022/05/11 04:38:26;;;;;;;4.57;2.97;;;;;;;12.20;100.00;100168.88;5047780;28;20039;-59
2022/05/11 04:40:52;;;;;;;5.18;2.67;;;;;;;12.06;100.00;100128.53;5030408;28;20041;-59
2022/05/11 04:43:17;;;;;;;4.55;2.75;;;;;;;12.30;100.00;100163.94;5030211;28;20024;-59
2022/05/11 04:45:44;;;;;;;5.00;2.28;;;;;;;12.25;100.00;100148.41;5029731;28;20036;-59
2022/05/11 04:48:11;;;;;;;8.55;2.83;;;;;;;12.22;100.00;100130.13;5029778;28;20181;-59
2022/05/11 04:50:38;;;;;;;5.05;3.15;;;;;;;12.45;100.00;100165.59;5029759;28;20032;-59
2022/05/11 04:53:04;;;;;;;5.20;3.25;;;;;;;12.32;100.00;100134.84;5029856;28;20033;-59
2022/05/11 04:55:29;;;;;;;4.43;2.80;;;;;;;12.51;100.00;100153.81;5029080;28;20194;-59
2022/05/11 04:57:55;;;;;;;8.32;3.67;;;;;;;12.57;100.00;100145.56;5011721;28;20032;-59
2022/05/11 05:00:20;;;;;;;6.03;3.00;;;;;;;12.73;100.00;100151.56;5031108;28;20020;-59
2022/05/11 05:02:46;;;;;;;4.78;2.95;;;;;;;12.63;100.00;100127.56;5029593;28;20028;-59
2022/05/11 05:05:12;;;;;;;12.52;3.45;;;;;;;12.90;100.00;100156.63;5029386;28;20085;-59
2022/05/11 05:07:39;;;;;;;6.97;3.47;;;;;;;13.00;100.00;100155.09;5029595;28;20098;-59
2022/05/11 05:10:07;;;;;;;9.15;3.63;;;;;;;12.69;100.00;100092.06;5035249;28;20020;-59
2022/05/11 05:12:33;;;;;;;16.38;4.70;;;;;;;13.26;100.00;100149.00;5041870;28;20534;-59
2022/05/11 05:14:58;;;;;;;10.45;4.43;;;;;;;13.35;100.00;100144.91;5045510;28;20521;-59
2022/05/11 05:17:24;;;;;;;11.95;4.85;;;;;;;13.44;100.00;100154.03;5052655;28;20067;-59
2022/05/11 05:19:50;;;;;;;10.90;5.05;;;;;;;13.37;100.00;100121.06;5050890;28;20481;-59
2022/05/11 05:22:16;;;;;;;12.40;5.03;;;;;;;13.62;100.00;100142.25;5035671;28;20933;-59
2022/05/11 05:24:42;;;;;;;15.70;4.93;;;;;;;13.73;100.00;100158.22;5030275;28;20131;-59
2022/05/11 05:27:08;;;;;;;9.27;4.15;;;;;;;13.76;100.00;100155.34;5033916;28;20093;-59
2022/05/11 05:32:18;;;;;;;14.35;4.88;;;;;;;14.07;100.00;100165.56;5042869;28;20192;-59
2022/05/11 05:34:44;;;;;;;10.55;4.22;;;;;;;14.19;100.00;100158.59;5057058;28;20147;-59
2022/05/11 05:37:10;;;;;;;10.30;4.72;;;;;;;14.32;100.00;100168.22;5052521;28;20945;-59
2022/05/11 05:39:36;;;;;;;6.88;3.63;;;;;;;14.41;100.00;100158.81;5062585;28;20030;-59
2022/05/11 05:42:01;;;;;;;9.05;3.28;;;;;;;14.43;100.00;100161.38;5049506;28;20914;-59
2022/05/11 05:44:30;;;;;;;5.50;3.22;;;;;;;14.58;100.00;100176.13;5043908;28;20024;-59
2022/05/11 05:47:01;;;;;;;11.27;2.95;;;;;;;14.64;100.00;100175.72;5047272;28;20067;-59
2022/05/11 05:49:28;;;;;;;10.27;3.90;;;;;;;14.74;100.00;100176.75;5049742;28;20081;-60
2022/05/11 05:51:53;;;;;;;8.35;3.65;;;;;;;14.85;100.00;100174.19;5049612;28;20024;-59
2022/05/11 05:54:19;;;;;;;13.30;3.20;;;;;;;14.97;100.00;100180.41;5044538;28;20161;-59
2022/05/11 05:56:44;;;;;;;7.57;3.50;;;;;;;14.98;100.00;100168.84;5041345;28;20028;-59
2022/05/11 05:59:11;;;;;;;8.02;3.30;;;;;;;15.15;100.00;100182.56;5048174;28;20054;-59
2022/05/11 06:01:37;;;;;;;8.80;3.90;;;;;;;15.25;100.00;100183.59;5039241;28;20032;-59
2022/05/11 06:04:05;;;;;;;6.70;3.35;;;;;;;15.32;100.00;100184.00;5058880;28;20024;-59
2022/05/11 06:06:30;;;;;;;10.57;3.90;;;;;;;15.46;100.00;100201.50;5059705;28;20035;-59
2022/05/11 06:08:56;;;;;;;8.50;3.55;;;;;;;15.48;100.00;100183.72;5063316;28;20036;-59
2022/05/11 06:11:21;;;;;;;11.00;4.35;;;;;;;15.56;100.00;100190.16;5063347;28;20036;-60
2022/05/11 06:13:47;;;;;;;12.70;2.95;;;;;;;15.62;100.00;100192.34;5057686;28;20112;-59
2022/05/11 06:16:14;;;;;;;6.05;2.80;;;;;;;15.66;100.00;100182.38;5056834;28;20062;-60
2022/05/11 06:18:41;;;;;;;7.70;3.38;;;;;;;15.71;100.00;100181.09;5056278;28;20032;-61
2022/05/11 06:21:07;;;;;;;5.25;2.88;;;;;;;15.87;100.00;100191.38;5057633;28;20093;-59
2022/05/11 06:23:33;;;;;;;6.70;2.80;;;;;;;15.95;100.00;100183.72;5055647;28;20031;-60
2022/05/11 06:25:58;;;;;;;8.20;3.15;;;;;;;15.97;100.00;100176.47;5054970;28;20032;-60
2022/05/11 06:28:23;;;;;;;8.73;3.15;;;;;;;15.92;100.00;100160.06;5053380;28;20073;-60
2022/05/11 06:30:49;;;;;;;5.60;2.58;;;;;;;16.06;100.00;100175.75;5051979;28;20031;-60
2022/05/11 06:33:14;;;;;;;8.63;2.83;;;;;;;16.11;100.00;100173.63;5050278;28;20024;-60
2022/05/11 06:35:40;;;;;;;4.68;2.42;;;;;;;16.23;100.00;100180.63;5049127;28;20023;-60
2022/05/11 06:38:07;;;;;;;8.48;2.25;;;;;;;16.30;100.00;100184.50;5048005;28;20036;-60
2022/05/11 06:40:33;;;;;;;6.07;2.70;;;;;;;16.12;100.00;100143.47;5064879;28;20063;-60
2022/05/11 06:42:59;;;;;;;6.00;2.83;;;;;;;16.36;100.00;100173.41;5047794;28;20032;-60
2022/05/11 06:45:25;;;;;;;5.57;3.47;;;;;;;16.34;100.00;100164.72;5029084;28;20976;-59
2022/05/11 06:47:53;;;;;;;6.32;3.42;;;;;;;16.50;100.00;100182.09;5045705;28;20020;-59
2022/05/11 06:50:18;;;;;;;7.05;4.18;;;;;;;16.57;100.00;100191.28;5044690;28;20020;-60
2022/05/11 06:52:44;;;;;;;5.25;3.70;;;;;;;16.62;100.00;100186.47;5045342;28;20034;-59
2022/05/11 07:00:48;;;;;;;6.18;3.10;;;;;;;16.78;100.00;100171.03;5009399;28;20498;-60
2022/05/11 07:03:14;;;;;;;6.88;2.80;;;;;;;16.92;100.00;100197.31;5046669;28;20036;-59
2022/05/11 07:05:41;;;;;;;6.60;2.60;;;;;;;16.65;100.00;100135.84;5027777;28;20937;-60
2022/05/11 07:08:07;;;;;;;6.18;2.33;;;;;;;16.97;100.00;100178.34;5045912;28;20906;-59
2022/05/11 07:12:17;;;;;;;6.63;2.25;;;;;;;16.98;100.00;100178.25;5045896;28;20035;-59
2022/05/11 07:13:26;;;;;;;4.22;1.90;;;;;;;17.03;100.00;100178.75;5044678;28;20901;-60
2022/05/11 07:15:52;;;;;;;4.30;2.13;;;;;;;17.06;100.00;100178.50;5045644;28;20035;-60
2022/05/11 07:18:17;;;;;;;3.35;1.80;;;;;;;17.08;100.00;100171.22;5046151;28;20867;-59
2022/05/11 07:20:43;;;;;;;6.35;2.08;;;;;;;17.04;100.00;100161.81;5045578;28;20032;-60
2022/05/11 07:23:08;;;;;;;6.18;2.05;;;;;;;17.18;100.00;100179.28;5045098;28;20028;-60
2022/05/11 07:25:34;;;;;;;4.85;1.63;;;;;;;17.25;100.00;100177.84;5045119;28;20058;-59
2022/05/11 07:28:01;;;;;;;3.75;2.22;;;;;;;17.26;100.00;100172.41;5045965;28;20056;-60
2022/05/11 07:30:32;;;;;;;6.80;2.17;;;;;;;17.34;100.00;100180.56;5046749;28;20139;-60
2022/05/11 07:32:59;;;;;;;3.47;1.83;;;;;;;17.40;100.00;100184.56;5046158;28;20039;-59
2022/05/11 07:35:24;;;;;;;4.10;1.60;;;;;;;17.44;100.00;100187.81;5045090;28;20028;-59
2022/05/11 07:37:50;;;;;;;3.30;1.77;;;;;;;17.49;100.00;100196.25;5045298;28;20117;-59
2022/05/11 07:40:17;;;;;;;4.63;2.45;;;;;;;17.53;100.00;100187.06;5046667;28;20028;-59
2022/05/11 07:42:43;;;;;;;4.55;1.95;;;;;;;17.56;100.00;100176.19;5047218;28;20024;-58
2022/05/11 07:45:10;;;;;;;4.32;2.08;;;;;;;17.57;100.00;100161.94;5048728;28;20028;-59
2022/05/11 07:47:36;;;;;;;5.50;2.55;;;;;;;17.61;100.00;100169.53;5045145;28;20096;-58
2022/05/11 07:50:02;;;;;;;4.70;1.75;;;;;;;17.69;100.00;100182.19;5041358;28;20029;-59
2022/05/11 07:52:28;;;;;;;5.25;1.80;;;;;;;17.81;100.00;100189.97;5041314;28;20047;-59
2022/05/11 07:54:53;;;;;;;4.38;2.03;;;;;;;17.82;100.00;100174.88;5023251;28;20892;-58
2022/05/11 08:00:06;;;;;;;6.95;1.85;;;;;;;17.96;100.00;100163.06;5028720;28;20102;-58
2022/05/11 08:02:34;;;;;;;7.55;3.03;;;;;;;18.17;100.00;100183.38;5029001;28;20491;-59
2022/05/11 08:05:02;;;;;;;7.38;2.10;;;;;;;18.22;100.00;100191.81;5031060;28;20036;-59
2022/05/11 08:07:34;;;;;;;7.85;2.05;;;;;;;18.19;100.00;100180.59;5028352;28;20037;-59
2022/05/11 08:10:00;;;;;;;5.10;2.10;;;;;;;18.11;100.00;100161.78;5028170;28;20032;-59
2022/05/11 08:12:26;;;;;;;5.38;2.00;;;;;;;18.21;100.00;100184.81;5027582;28;20035;-59
2022/05/11 08:14:53;;;;;;;5.35;2.10;;;;;;;18.26;100.00;100179.94;5028765;28;20028;-59
2022/05/11 08:17:30;;;;;;;14.82;2.17;;;;;;;18.32;100.00;100171.44;5027516;28;20131;-59
2022/05/11 08:19:56;;;;;;;8.02;2.30;;;;;;;18.26;100.00;100147.16;5017682;28;20028;-60
2022/05/11 08:22:21;;;;;;;2.97;1.48;;;;;;;18.44;100.00;100168.69;5039524;28;20147;-60
2022/05/11 08:24:48;;;;;;;4.18;1.73;;;;;;;18.47;100.00;100157.78;5036027;28;20013;-59
2022/05/11 08:27:20;;;;;;;10.82;2.08;;;;;;;18.55;100.00;100171.31;5032205;28;20060;-60
2022/05/11 08:35:15;;;;;;;5.97;1.48;;;;;;;18.71;100.00;100169.00;5049642;28;20101;-59
2022/05/11 08:37:40;;;;;;;7.47;1.92;;;;;;;18.73;100.00;100161.69;5041584;28;20033;-60
2022/05/11 08:40:06;;;;;;;3.25;1.88;;;;;;;18.75;100.00;100167.75;5027611;28;20747;-60
2022/05/11 08:42:32;;;;;;;8.68;1.70;;;;;;;18.73;100.00;100167.88;5026947;28;20029;-60
2022/05/11 08:45:01;;;;;;;5.43;1.77;;;;;;;18.79;100.00;100169.16;5027554;28;20031;-60
2022/05/11 08:47:30;;;;;;;7.00;2.33;;;;;;;18.91;100.00;100172.56;5022479;28;20034;-60
2022/05/11 08:50:11;;;;;;;6.03;1.85;;;;;;;19.06;100.00;100171.22;5049055;28;20035;-60
2022/05/11 08:53:02;;;;;;;7.68;1.95;;;;;;;19.13;100.00;100167.03;5046229;28;20032;-60
2022/05/11 08:55:46;;;;;;;3.30;1.70;;;;;;;19.12;100.00;100160.84;5019221;28;21014;-60
2022/05/11 08:58:36;;;;;;;2.83;1.65;;;;;;;19.13;100.00;100162.50;5041919;28;20144;-60
2022/05/11 09:01:03;;;;;;;6.90;2.58;;;;;;;19.12;100.00;100150.19;5022008;28;20037;-60
2022/05/11 09:03:43;;;;;;;5.00;1.70;;;;;;;19.24;100.00;100158.91;5028427;28;20029;-60
2022/05/11 09:06:26;;;;;;;4.00;1.77;;;;;;;19.32;100.00;100161.72;5043113;28;20556;-60
2022/05/11 09:08:53;;;;;;;4.57;2.05;;;;;;;19.33;100.00;100147.44;5027835;28;20035;-60
2022/05/11 09:11:26;;;;;;;15.30;2.30;;;;;;;19.48;100.00;100147.88;5044511;28;20086;-60
2022/05/11 09:13:51;;;;;;;13.00;2.92;;;;;;;19.46;100.00;100150.69;5040795;28;20039;-60
2022/05/11 09:16:25;;;;;;;4.03;1.70;;;;;;;19.48;100.00;100150.53;5040927;28;20127;-60
2022/05/11 09:18:50;;;;;;;5.77;2.13;;;;;;;19.48;100.00;100129.22;5028224;28;20035;-60
2022/05/11 09:21:29;;;;;;;4.50;1.90;;;;;;;19.61;100.00;100132.44;5041717;28;20583;-60
2022/05/11 09:24:03;;;;;;;7.05;2.25;;;;;;;19.69;100.00;100135.25;5028651;28;20143;-60
2022/05/11 09:26:30;;;;;;;;;;;;;;;19.74;100.00;100143.66;5030438;28;21116;-60
2022/05/11 09:29:12;;;;;;;7.70;2.40;;;;;;;19.86;100.00;100139.88;5045752;28;19970;-60
2022/05/11 09:31:38;;;;;;;11.43;3.20;;;;;;;19.82;100.00;100111.78;5035025;28;20097;-60
2022/05/11 09:34:05;;;;;;;5.78;1.67;;;;;;;20.00;100.00;100133.25;5012111;28;20024;-59
2022/05/11 09:36:40;;;;;;;6.70;2.58;;;;;;;20.03;100.00;100125.81;5029701;28;20036;-59
2022/05/11 09:39:14;;;;;;;5.97;2.30;;;;;;;20.18;100.00;100124.34;5029613;28;20371;-59
2022/05/11 09:41:40;;;;;;;5.90;2.35;;;;;;;20.39;100.00;100124.16;5043637;28;20054;-59
2022/05/11 09:44:23;;;;;;;9.70;2.85;;;;;;;20.51;100.00;100119.50;5046055;28;20025;-60
2022/05/11 09:46:49;;;;;;;6.38;2.10;;;;;;;20.31;99.28;100108.88;5026522;28;20026;-59
2022/05/11 09:49:17;;;;;;;7.13;2.42;;;;;;;20.44;97.84;100131.75;5044304;28;20028;-60
2022/05/11 09:51:45;;;;;;;9.63;2.70;;;;;;;20.39;97.17;100116.16;5045950;28;20036;-59
2022/05/11 09:54:36;;;;;;;4.25;2.20;;;;;;;20.53;100.00;100134.38;5046570;28;20020;-59
2022/05/11 09:57:26;;;;;;;6.22;2.60;;;;;;;20.61;97.75;100131.81;5046289;28;20032;-59
2022/05/11 09:59:52;;;;;;;7.13;2.90;;;;;;;20.60;95.08;100124.78;5047711;28;20876;-59
2022/05/11 10:02:34;;;;;;;7.15;2.95;;;;;;;20.70;95.73;100130.09;5046625;28;20028;-60
2022/05/11 10:05:04;;;;;;;5.60;2.42;;;;;;;20.77;95.86;100126.69;5045929;28;20919;-59
2022/05/11 10:07:32;;;;;;;5.05;2.38;;;;;;;20.59;93.41;100085.72;5030881;28;20181;-60
2022/05/11 10:10:02;;;;;;;4.60;1.90;;;;;;;20.90;95.82;100123.66;5046746;28;20032;-59
2022/05/11 10:12:32;;;;;;;5.28;2.55;;;;;;;20.88;95.68;100088.25;5047076;28;20035;-59
2022/05/11 10:23:22;;;;;;;5.63;2.45;;;;;;;21.69;88.11;100110.44;5045393;28;19919;-59
2022/05/11 10:25:54;;;;;;;5.75;2.30;;;;;;;21.32;86.85;100052.66;5019876;28;20219;-59
2022/05/11 10:28:45;;;;;;;11.73;2.55;;;;;;;21.57;87.20;100103.63;5039536;28;20027;-60
2022/05/11 10:31:26;;;;;;;9.27;3.30;;;;;;;21.42;88.04;100090.00;5040206;28;20028;-59
2022/05/11 10:33:57;;;;;;;12.05;3.75;;;;;;;21.47;85.57;100092.19;5045601;28;20039;-60
2022/05/11 10:36:26;;;;;;;6.78;3.72;;;;;;;21.69;90.19;100102.41;5042730;28;20056;-59
2022/05/11 10:38:54;;;;;;;5.43;3.20;;;;;;;21.79;87.04;100095.13;5038914;28;20032;-59
2022/05/11 10:41:29;;;;;;;7.18;3.00;;;;;;;21.80;84.73;100100.31;5046184;28;20423;-59
2022/05/11 10:44:15;;;;;;;9.77;3.50;;;;;;;21.78;86.84;100074.72;5045731;28;20870;-59
2022/05/11 10:47:17;;;;;;;6.72;3.08;;;;;;;22.00;82.16;100090.31;5002691;28;20044;-59
2022/05/11 10:49:57;;;;;;;6.53;3.67;;;;;;;21.93;80.70;100089.25;5026633;28;20060;-60
2022/05/11 10:52:32;;;;;;;5.93;3.75;;;;;;;22.00;80.89;100084.97;5026860;28;20024;-60
2022/05/11 10:55:18;;;;;;;7.82;3.70;;;;;;;22.11;82.61;100081.16;5025595;28;20035;-60
2022/05/11 10:57:44;;;;;;;6.70;3.60;;;;;;;22.16;81.38;100079.69;5025138;28;20024;-60
2022/05/11 11:00:12;;;;;;;6.93;3.80;;;;;;;22.25;81.49;100078.72;5026012;28;20086;-59
2022/05/11 11:02:57;;;;;;;15.05;5.05;;;;;;;22.35;81.81;100076.78;5044500;28;20028;-60
2022/05/11 11:05:30;;;;;;;11.43;4.15;;;;;;;22.49;81.49;100069.97;5045420;28;20036;-60
2022/05/11 11:08:21;;;;;;;7.97;4.20;;;;;;;22.68;79.35;100068.88;5027054;28;20139;-60
2022/05/11 11:10:52;;;;;;;9.93;4.20;;;;;;;22.74;77.62;100073.63;5045079;28;20039;-60
2022/05/11 11:13:39;;;;;;;7.50;4.15;;;;;;;22.77;77.28;100071.47;5045014;28;20043;-60
2022/05/11 11:16:05;;;;;;;16.65;4.53;;;;;;;22.79;75.26;100056.03;5045151;28;20055;-60
2022/05/11 11:18:33;;;;;;;13.18;4.47;;;;;;;23.10;75.31;100053.59;5065780;28;20024;-60
2022/05/11 11:21:02;;;;;;;14.80;4.60;;;;;;;23.03;74.58;100025.78;5050057;28;20027;-60
2022/05/11 11:23:31;;;;;;;6.63;3.60;;;;;;;23.27;73.07;100033.84;5031605;28;20020;-60
2022/05/11 11:25:58;;;;;;;8.23;3.00;;;;;;;23.48;72.56;100062.03;5049179;28;20032;-60
2022/05/11 11:28:51;;;;;;;6.18;3.10;;;;;;;23.55;73.36;100047.78;5047729;28;20035;-60
2022/05/11 11:31:19;;;;;;;11.18;3.17;;;;;;;23.76;72.53;100044.59;4990907;28;20044;-61
2022/05/11 11:33:56;;;;;;;6.72;2.80;;;;;;;24.14;71.63;100041.16;5028998;28;20032;-60
2022/05/11 11:36:26;;;;;;;10.15;2.92;;;;;;;24.45;69.54;100035.00;5033807;28;20024;-60
2022/05/11 11:38:53;;;;;;;6.35;2.85;;;;;;;25.32;66.23;100016.66;5041530;28;20040;-60
2022/05/11 11:41:37;;;;;;;11.05;2.97;;;;;;;26.71;65.30;100033.03;5053214;28;20036;-60
2022/05/11 11:44:21;;;;;;;9.18;3.15;;;;;;;28.03;61.89;100025.16;5049900;28;20108;-60
2022/05/11 11:46:48;;;;;;;8.45;3.00;;;;;;;29.15;62.96;100010.25;5050447;28;21066;-60
2022/05/11 11:49:19;;;;;;;13.98;2.58;;;;;;;30.77;59.06;100022.94;5050368;28;20035;-60
2022/05/11 11:51:50;;;;;;;13.25;2.40;;;;;;;31.11;53.47;100007.31;5049260;28;20028;-60
2022/05/11 11:54:43;;;;;;;5.10;2.30;;;;;;;31.17;52.73;99995.56;5049266;28;20128;-60
2022/05/11 11:57:14;;;;;;;4.53;2.05;;;;;;;31.81;50.38;100009.66;5048699;28;20221;-60